Time;durP1;ratioP1;P1;durP2;ratioP2;P2;SDS_P1;SDS_P2;PMS_P1;PMS_P2;Temp;Humidity;BMP_temperature;BMP_pressure;BME280_temperature;BME280_humidity;BME280_pressure;Samples;Min_cycle;Max_cycle;Signal;HPM_P1;HPM_P2
2023/02/27 00:01:57;;;;;;;0.00;0.00;;;;;;;9.66;54.06;102846.94;7346040;19;22593;-57
2023/02/27 00:04:22;;;;;;;0.00;0.00;;;;;;;9.66;54.27;102849.56;7334657;19;20025;-57
2023/02/27 00:06:47;;;;;;;0.00;0.00;;;;;;;9.65;54.68;102853.03;7333501;19;20007;-57
2023/02/27 00:09:13;;;;;;;0.00;0.00;;;;;;;9.64;54.64;102856.50;7332135;19;20007;-58
2023/02/27 00:11:39;;;;;;;0.10;0.10;;;;;;;9.62;54.31;102849.50;7339737;19;20010;-57
2023/02/27 00:14:04;;;;;;;0.00;0.00;;;;;;;9.62;54.57;102852.09;7340163;19;20411;-57
2023/02/27 00:16:30;;;;;;;0.10;0.10;;;;;;;9.49;54.48;102826.72;7338796;19;20048;-58
2023/02/27 00:18:58;;;;;;;0.00;0.00;;;;;;;9.61;54.52;102850.34;7336871;19;20052;-57
2023/02/27 00:21:23;;;;;;;0.10;0.10;;;;;;;9.60;54.57;102851.22;7344194;19;20022;-57
2023/02/27 00:23:50;;;;;;;0.00;0.00;;;;;;;9.49;54.86;102826.72;7343802;19;20973;-57
2023/02/27 00:26:15;;;;;;;0.00;0.00;;;;;;;9.60;54.35;102843.41;7350922;19;20488;-59
2023/02/27 00:28:41;;;;;;;0.00;0.00;;;;;;;9.59;54.71;102849.47;7355938;19;20019;-57
2023/02/27 00:31:06;;;;;;;0.00;0.00;;;;;;;9.64;54.85;102848.69;7353747;19;20030;-57
2023/02/27 00:33:31;;;;;;;0.00;0.00;;;;;;;9.64;54.59;102851.28;7353829;19;20014;-57
2023/02/27 00:35:59;;;;;;;0.00;0.00;;;;;;;9.65;54.32;102850.41;7353821;19;20010;-58
2023/02/27 00:38:25;;;;;;;0.00;0.00;;;;;;;9.59;54.36;102841.66;7355043;19;20745;-57
2023/02/27 00:40:50;;;;;;;0.00;0.00;;;;;;;9.53;54.54;102833.72;7353679;19;20542;-56
2023/02/27 00:43:16;;;;;;;0.00;0.00;;;;;;;9.67;54.65;102840.88;7354028;19;20011;-57
2023/02/27 00:45:41;;;;;;;0.00;0.00;;;;;;;9.66;54.57;102840.00;7353881;19;20013;-57
2023/02/27 00:48:07;;;;;;;0.00;0.00;;;;;;;9.58;54.12;102826.84;7355244;19;20003;-57
2023/02/27 00:50:32;;;;;;;0.00;0.00;;;;;;;9.66;53.88;102839.13;7350881;19;20017;-57
2023/02/27 00:52:57;;;;;;;0.00;0.00;;;;;;;9.64;54.32;102836.50;7356206;19;20021;-58
2023/02/27 00:55:23;;;;;;;0.10;0.10;;;;;;;9.70;54.24;102846.16;7351934;19;20027;-57
2023/02/27 00:57:48;;;;;;;0.00;0.00;;;;;;;9.70;53.97;102852.25;7351836;19;20468;-57
2023/02/27 01:00:14;;;;;;;0.00;0.00;;;;;;;9.71;53.60;102847.91;7353298;19;20010;-57
2023/02/27 01:02:39;;;;;;;0.05;0.05;;;;;;;9.71;53.63;102846.16;7354349;19;20010;-57
2023/02/27 01:05:05;;;;;;;0.00;0.00;;;;;;;9.71;54.09;102853.13;7351898;19;20035;-57
2023/02/27 01:07:31;;;;;;;0.10;0.10;;;;;;;9.71;53.69;102848.78;7349873;19;20014;-57
2023/02/27 01:09:57;;;;;;;0.00;0.00;;;;;;;9.71;53.79;102858.34;7352276;19;20055;-57
2023/02/27 01:12:23;;;;;;;0.00;0.00;;;;;;;9.30;53.96;102783.81;7351288;19;20617;-57
2023/02/27 01:14:49;;;;;;;0.00;0.00;;;;;;;9.67;53.95;102846.97;7355456;19;20019;-57
2023/02/27 01:17:14;;;;;;;0.00;0.00;;;;;;;9.72;54.09;102849.66;7349501;19;20027;-57
2023/02/27 01:19:40;;;;;;;0.00;0.00;;;;;;;9.70;53.93;102856.59;7354583;19;20011;-58
2023/02/27 01:22:05;;;;;;;0.00;0.00;;;;;;;9.69;53.92;102860.06;7352258;19;20016;-58
2023/02/27 01:24:31;;;;;;;0.00;0.00;;;;;;;9.51;53.67;102838.03;7351683;19;20400;-57
2023/02/27 01:26:57;;;;;;;0.10;0.10;;;;;;;9.65;53.75;102868.69;7352386;19;20003;-57
2023/02/27 01:29:22;;;;;;;0.00;0.00;;;;;;;9.60;53.71;102866.88;7350340;19;20029;-57
2023/02/27 01:31:48;;;;;;;0.05;0.05;;;;;;;9.59;54.04;102869.47;7352717;19;20018;-57
2023/02/27 01:34:13;;;;;;;0.00;0.00;;;;;;;9.54;54.10;102861.56;7353364;19;20015;-57
2023/02/27 01:36:39;;;;;;;0.00;0.00;;;;;;;9.46;53.92;102851.84;7353673;19;20344;-57
2023/02/27 01:39:04;;;;;;;0.10;0.10;;;;;;;9.47;53.92;102858.81;7348356;19;20730;-56
2023/02/27 01:41:30;;;;;;;0.00;0.00;;;;;;;9.40;53.95;102847.41;7352829;19;20011;-58
2023/02/27 01:44:02;;;;;;;0.00;0.00;;;;;;;9.38;53.66;102862.16;7351570;19;20078;-58
2023/02/27 01:46:29;;;;;;;0.00;0.00;;;;;;;9.32;54.26;102859.44;7353594;19;20043;-57
2023/02/27 01:49:06;;;;;;;0.00;0.00;;;;;;;9.19;54.26;102852.28;7348676;19;20057;-57
2023/02/27 01:51:36;;;;;;;0.00;0.00;;;;;;;9.12;54.02;102850.38;7352122;19;20043;-58
2023/02/27 01:54:04;;;;;;;0.10;0.10;;;;;;;9.20;54.36;102869.66;7349947;19;20014;-57
2023/02/27 01:56:31;;;;;;;0.00;0.00;;;;;;;9.15;54.44;102866.09;7353666;19;20030;-57
2023/02/27 01:59:06;;;;;;;0.00;0.00;;;;;;;9.10;54.38;102864.28;7348850;19;20054;-57
2023/02/27 02:01:33;;;;;;;0.00;0.00;;;;;;;8.97;54.77;102849.28;7349863;19;21074;-57
2023/02/27 02:04:16;;;;;;;0.05;0.05;;;;;;;9.03;54.46;102857.22;7352719;19;20018;-57
2023/02/27 02:06:46;;;;;;;0.00;0.00;;;;;;;9.06;54.58;102858.97;7348611;19;20093;-58
2023/02/27 02:09:14;;;;;;;0.00;0.00;;;;;;;8.87;54.99;102831.72;7352452;19;20006;-57
2023/02/27 02:11:41;;;;;;;0.00;0.00;;;;;;;9.02;55.10;102855.47;7351770;19;20014;-57
2023/02/27 02:14:09;;;;;;;0.00;0.00;;;;;;;9.03;55.08;102857.22;7349167;19;20735;-58
2023/02/27 02:16:34;;;;;;;0.00;0.00;;;;;;;9.03;55.10;102866.75;7349278;19;20566;-57
2023/02/27 02:19:09;;;;;;;0.00;0.00;;;;;;;9.02;55.04;102864.97;7354209;19;20390;-57
2023/02/27 02:22:05;;;;;;;0.00;0.00;;;;;;;9.03;54.48;102872.84;7353173;19;20840;-57
2023/02/27 02:25:08;;;;;;;0.00;0.00;;;;;;;9.05;54.20;102863.31;7251749;19;2004254;-57
2023/02/27 02:27:59;;;;;;;0.00;0.00;;;;;;;9.05;54.99;102865.03;7248806;19;2004639;-58
2023/02/27 02:30:33;;;;;;;0.00;0.00;;;;;;;9.05;54.88;102860.72;7342571;19;20722;-58
2023/02/27 02:32:58;;;;;;;0.00;0.00;;;;;;;9.04;55.27;102864.16;7352040;19;20014;-57
2023/02/27 02:35:48;;;;;;;0.10;0.10;;;;;;;9.08;54.13;102866.00;7348506;19;21428;-57
2023/02/27 02:38:35;;;;;;;0.00;0.00;;;;;;;9.08;54.82;102860.78;7250058;19;2004309;-58
2023/02/27 02:41:25;;;;;;;0.05;0.05;;;;;;;9.12;54.45;102860.81;7250195;19;2004318;-58
2023/02/27 02:43:56;;;;;;;0.00;0.00;;;;;;;9.10;55.01;102859.06;7346222;19;21033;-58
2023/02/27 02:46:50;;;;;;;0.00;0.00;;;;;;;9.06;54.38;102848.56;7351528;19;20009;-58
2023/02/27 02:49:32;;;;;;;0.00;0.00;;;;;;;9.05;54.69;102833.78;7249006;19;2004369;-57
2023/02/27 02:52:06;;;;;;;0.00;0.00;;;;;;;9.17;55.22;102843.53;7343750;19;20006;-57
2023/02/27 02:54:57;;;;;;;0.08;0.08;;;;;;;9.14;54.36;102831.34;7346641;19;20010;-57
2023/02/27 02:57:30;;;;;;;0.00;0.00;;;;;;;9.19;55.27;102858.34;7350645;19;20082;-58
2023/02/27 03:00:04;;;;;;;0.03;0.03;;;;;;;9.19;55.38;102863.56;7344310;19;20014;-57
2023/02/27 03:02:36;;;;;;;0.00;0.00;;;;;;;9.21;55.35;102876.63;7356236;19;20033;-57
2023/02/27 03:05:08;;;;;;;0.00;0.00;;;;;;;9.14;55.23;102860.00;7351588;19;20011;-57
2023/02/27 03:08:12;;;;;;;0.00;0.00;;;;;;;9.21;54.81;102868.81;7356809;19;20007;-57
2023/02/27 03:10:56;;;;;;;0.00;0.00;;;;;;;9.23;54.49;102865.38;7250759;19;2004199;-58
2023/02/27 03:13:40;;;;;;;0.00;0.00;;;;;;;9.25;54.27;102862.81;7352405;19;20125;-58
2023/02/27 03:16:23;;;;;;;0.00;0.00;;;;;;;9.24;54.54;102861.94;7341681;19;20041;-58
2023/02/27 03:18:57;;;;;;;0.00;0.00;;;;;;;9.26;54.96;102859.34;7353757;19;20010;-58
2023/02/27 03:21:43;;;;;;;0.00;0.00;;;;;;;9.28;54.31;102860.25;7355521;19;20121;-58
2023/02/27 03:24:19;;;;;;;0.00;0.00;;;;;;;9.29;55.02;102864.63;7348724;19;20086;-57
2023/02/27 03:26:48;;;;;;;0.00;0.00;;;;;;;9.17;55.50;102838.31;7351902;19;20010;-58
2023/02/27 03:29:19;;;;;;;0.00;0.00;;;;;;;9.28;55.14;102860.25;7354591;19;20043;-57
2023/02/27 03:31:51;;;;;;;0.00;0.00;;;;;;;9.30;55.08;102866.38;7353901;19;20017;-59
2023/02/27 03:34:22;;;;;;;0.00;0.00;;;;;;;9.31;54.52;102857.69;7356292;19;20078;-57
2023/02/27 03:37:01;;;;;;;0.00;0.00;;;;;;;9.29;54.31;102854.19;7352581;19;20028;-57
2023/02/27 03:39:31;;;;;;;0.00;0.00;;;;;;;9.29;54.68;102860.28;7354562;19;20017;-57
2023/02/27 03:42:17;;;;;;;0.00;0.00;;;;;;;9.25;54.29;102853.25;7353472;19;20026;-57
2023/02/27 03:44:58;;;;;;;0.00;0.00;;;;;;;9.32;54.27;102878.56;7351240;19;20030;-58
2023/02/27 03:47:23;;;;;;;0.00;0.00;;;;;;;8.89;53.83;102796.16;7350007;19;20089;-57
2023/02/27 03:49:52;;;;;;;0.00;0.00;;;;;;;9.30;54.21;102879.41;7351784;19;20081;-57
2023/02/27 03:52:19;;;;;;;0.00;0.00;;;;;;;9.31;53.80;102874.19;7359511;19;20590;-57
2023/02/27 03:55:03;;;;;;;;;;;;;;;9.34;53.71;102878.59;7361244;19;20017;-57
2023/02/27 03:57:30;;;;;;;0.00;0.00;;;;;;;9.31;54.29;102875.94;7362133;19;20312;-57
2023/02/27 03:59:57;;;;;;;0.00;0.00;;;;;;;9.26;54.02;102861.94;7358197;19;20031;-58
2023/02/27 04:02:23;;;;;;;0.00;0.00;;;;;;;9.17;53.93;102851.34;7358579;19;20644;-58
2023/02/27 04:04:49;;;;;;;0.00;0.00;;;;;;;9.22;54.38;102858.41;7360255;19;20029;-59
2023/02/27 04:07:25;;;;;;;0.00;0.00;;;;;;;9.28;54.18;102860.25;7357475;19;20010;-58
2023/02/27 04:10:12;;;;;;;0.00;0.00;;;;;;;9.32;53.83;102867.25;7360225;19;20031;-58
2023/02/27 04:12:49;;;;;;;0.00;0.00;;;;;;;9.31;53.94;102863.78;7354865;19;20460;-57
2023/02/27 04:15:18;;;;;;;;;;;;;;;9.33;53.79;102866.44;7341352;19;20019;-58
2023/02/27 04:18:03;;;;;;;0.00;0.00;;;;;;;9.30;54.09;102861.16;7355481;19;19918;-58
2023/02/27 04:20:41;;;;;;;0.00;0.00;;;;;;;8.93;53.95;102803.16;7359723;19;20018;-58
2023/02/27 04:23:13;;;;;;;0.00;0.00;;;;;;;9.33;54.28;102856.00;7342301;19;20013;-58
2023/02/27 04:25:42;;;;;;;0.00;0.00;;;;;;;9.21;54.16;102848.81;7359721;19;20031;-58
2023/02/27 04:28:16;;;;;;;0.00;0.00;;;;;;;9.28;54.04;102862.88;7359248;19;20006;-57
2023/02/27 04:31:00;;;;;;;0.00;0.00;;;;;;;9.30;53.70;102861.16;7351392;19;20030;-57
2023/02/27 04:33:41;;;;;;;0.00;0.00;;;;;;;9.15;53.76;102840.03;7360175;19;20102;-57
2023/02/27 04:36:09;;;;;;;0.00;0.00;;;;;;;9.27;54.35;102876.72;7359521;19;20011;-58
2023/02/27 04:38:40;;;;;;;0.00;0.00;;;;;;;8.80;53.74;102795.97;7359119;19;20021;-57
2023/02/27 04:41:15;;;;;;;0.00;0.00;;;;;;;9.30;53.79;102876.78;7361640;19;20045;-58
2023/02/27 04:43:44;;;;;;;0.00;0.00;;;;;;;9.26;53.34;102874.97;7356812;19;20039;-57
2023/02/27 04:46:15;;;;;;;0.08;0.08;;;;;;;9.23;53.95;102874.94;7356729;19;20014;-57
2023/02/27 04:48:49;;;;;;;0.00;0.00;;;;;;;9.29;53.39;102875.03;7359916;19;20010;-58
2023/02/27 04:51:18;;;;;;;0.00;0.00;;;;;;;9.28;53.35;102878.50;7357753;19;20007;-57
2023/02/27 04:54:03;;;;;;;0.00;0.00;;;;;;;9.28;53.00;102876.78;7360260;19;20035;-57
2023/02/27 04:56:33;;;;;;;0.00;0.00;;;;;;;9.26;53.35;102874.97;7360123;19;20006;-58
2023/02/27 04:59:04;;;;;;;0.00;0.00;;;;;;;9.24;53.30;102872.34;7359188;19;20015;-57
2023/02/27 05:01:45;;;;;;;0.00;0.00;;;;;;;9.20;53.23;102864.44;7356905;19;20023;-57
2023/02/27 05:04:14;;;;;;;0.00;0.00;;;;;;;8.90;53.56;102826.56;7358678;19;20010;-57
2023/02/27 05:06:43;;;;;;;0.00;0.00;;;;;;;9.07;53.59;102853.81;7361605;19;20102;-58
2023/02/27 05:09:20;;;;;;;0.00;0.00;;;;;;;9.24;53.50;102881.91;7355954;19;20473;-57
2023/02/27 05:11:55;;;;;;;0.00;0.00;;;;;;;9.18;53.68;102879.19;7359721;19;20021;-57
2023/02/27 05:14:31;;;;;;;0.00;0.00;;;;;;;9.26;53.54;102886.28;7361102;19;20466;-57
2023/02/27 05:17:22;;;;;;;0.00;0.00;;;;;;;9.27;53.31;102885.41;7361571;19;20014;-58
2023/02/27 05:19:48;;;;;;;0.10;0.10;;;;;;;9.23;54.08;102880.16;7253924;19;2004284;-58
2023/02/27 05:22:50;;;;;;;0.00;0.00;;;;;;;9.27;53.66;102887.16;7359962;19;20014;-59
2023/02/27 05:25:43;;;;;;;0.00;0.00;;;;;;;9.23;53.81;102880.16;7256662;19;2004379;-58
2023/02/27 05:28:21;;;;;;;0.00;0.00;;;;;;;8.95;53.70;102832.72;7358349;19;20047;-57
2023/02/27 05:31:23;;;;;;;0.00;0.00;;;;;;;9.27;53.28;102887.16;7358292;19;20350;-58
2023/02/27 05:34:15;;;;;;;0.00;0.00;;;;;;;9.28;53.65;102888.94;7255034;19;2004348;-57
2023/02/27 05:37:11;;;;;;;0.00;0.00;;;;;;;9.27;53.31;102892.38;7358593;19;20685;-58
2023/02/27 05:39:39;;;;;;;0.00;0.00;;;;;;;9.22;53.93;102891.41;7257613;19;2004515;-58
2023/02/27 05:42:30;;;;;;;0.00;0.00;;;;;;;9.25;53.39;102883.66;7352849;19;20006;-58
2023/02/27 05:45:04;;;;;;;0.00;0.00;;;;;;;9.24;53.93;102887.13;7258646;19;2004455;-58
2023/02/27 05:47:32;;;;;;;0.00;0.00;;;;;;;9.22;54.12;102888.81;7357056;19;20078;-57
2023/02/27 05:50:09;;;;;;;0.00;0.00;;;;;;;9.18;54.04;102877.47;7358438;19;20010;-57
2023/02/27 05:52:36;;;;;;;0.00;0.00;;;;;;;9.12;53.75;102860.81;7357066;19;20451;-57
2023/02/27 05:55:25;;;;;;;0.00;0.00;;;;;;;9.25;53.66;102883.66;7348982;19;20021;-57
2023/02/27 05:58:03;;;;;;;0.00;0.00;;;;;;;8.61;53.58;102773.91;7357548;19;20749;-57
2023/02/27 06:00:45;;;;;;;0.00;0.00;;;;;;;8.94;53.93;102838.78;7356000;19;20007;-57
2023/02/27 06:03:11;;;;;;;0.00;0.00;;;;;;;9.20;54.22;102880.97;7354978;19;20126;-58
2023/02/27 06:05:38;;;;;;;0.00;0.00;;;;;;;9.20;53.69;102878.34;7359853;19;20706;-57
2023/02/27 06:08:03;;;;;;;0.00;0.00;;;;;;;9.21;54.13;102879.22;7353381;19;20007;-57
2023/02/27 06:10:29;;;;;;;0.03;0.03;;;;;;;9.20;53.81;102873.13;7354695;19;21386;-57
2023/02/27 06:12:54;;;;;;;0.00;0.00;;;;;;;9.14;54.10;102861.75;7353962;19;20030;-57
2023/02/27 06:15:20;;;;;;;0.00;0.00;;;;;;;9.21;54.10;102871.41;7358948;19;20014;-57
2023/02/27 06:17:45;;;;;;;0.10;0.10;;;;;;;9.17;54.03;102861.78;7355659;19;20335;-57
2023/02/27 06:20:11;;;;;;;0.00;0.00;;;;;;;8.98;54.39;102832.78;7358467;19;20015;-57
2023/02/27 06:22:37;;;;;;;0.00;0.00;;;;;;;9.24;54.45;102874.09;7358819;19;20010;-57
2023/02/27 06:25:02;;;;;;;0.10;0.10;;;;;;;9.24;54.26;102866.25;7357458;19;20018;-57
2023/02/27 06:27:28;;;;;;;0.00;0.00;;;;;;;9.24;54.27;102866.25;7358346;19;20106;-58
2023/02/27 06:29:53;;;;;;;0.08;0.08;;;;;;;9.23;54.09;102874.94;7356589;19;20475;-57
2023/02/27 06:32:20;;;;;;;0.08;0.08;;;;;;;9.07;54.14;102843.41;7353990;19;20872;-57
2023/02/27 06:34:45;;;;;;;0.00;0.00;;;;;;;9.21;53.95;102872.28;7355701;19;20018;-58
2023/02/27 06:37:11;;;;;;;0.10;0.10;;;;;;;8.94;54.22;102819.69;7354822;19;20040;-58
2023/02/27 06:39:36;;;;;;;0.00;0.00;;;;;;;9.24;54.17;102874.97;7358775;19;20109;-57
2023/02/27 06:42:01;;;;;;;0.10;0.10;;;;;;;9.15;54.35;102860.88;7355455;19;20018;-58
2023/02/27 06:44:28;;;;;;;0.00;0.00;;;;;;;9.24;53.93;102881.91;7355318;19;20011;-57
2023/02/27 06:46:53;;;;;;;0.10;0.10;;;;;;;9.24;53.86;102876.69;7358103;19;20023;-58
2023/02/27 06:49:19;;;;;;;0.00;0.00;;;;;;;9.23;53.91;102881.03;7353803;19;20066;-58
2023/02/27 06:51:44;;;;;;;0.00;0.00;;;;;;;9.19;54.15;102875.72;7358775;19;20223;-57
2023/02/27 06:54:10;;;;;;;0.08;0.08;;;;;;;9.20;53.91;102885.31;7350915;19;20006;-58
2023/02/27 06:56:35;;;;;;;0.00;0.00;;;;;;;9.18;54.31;102881.81;7357752;19;20538;-58
2023/02/27 06:59:01;;;;;;;0.00;0.00;;;;;;;9.22;54.20;102883.59;7343629;19;20017;-58
2023/02/27 07:01:26;;;;;;;0.00;0.00;;;;;;;9.18;54.37;102873.97;7353581;19;20006;-57
2023/02/27 07:03:51;;;;;;;0.00;0.00;;;;;;;9.21;54.14;102884.44;7353408;19;20011;-58
2023/02/27 07:06:17;;;;;;;0.00;0.00;;;;;;;9.22;54.37;102891.41;7343423;19;20090;-59
2023/02/27 07:08:42;;;;;;;0.08;0.08;;;;;;;9.23;54.42;102896.66;7356552;19;20038;-57
2023/02/27 07:11:08;;;;;;;0.00;0.00;;;;;;;8.91;54.33;102846.53;7350675;19;20018;-58
2023/02/27 07:13:33;;;;;;;0.10;0.10;;;;;;;9.09;53.91;102870.34;7352377;19;20006;-57
2023/02/27 07:15:59;;;;;;;0.08;0.08;;;;;;;9.19;54.22;102891.38;7353335;19;20026;-59
2023/02/27 07:18:24;;;;;;;0.00;0.00;;;;;;;9.22;54.23;102894.00;7355089;19;20017;-57
2023/02/27 07:20:51;;;;;;;0.00;0.00;;;;;;;9.24;54.36;102894.94;7356824;19;20035;-58
2023/02/27 07:23:17;;;;;;;0.00;0.00;;;;;;;9.26;54.11;102901.03;7353824;19;20007;-58
2023/02/27 07:25:42;;;;;;;0.10;0.10;;;;;;;9.11;54.48;102875.56;7363232;19;20006;-57
2023/02/27 07:28:08;;;;;;;0.03;0.03;;;;;;;9.24;54.68;102895.81;7359392;19;20011;-58
2023/02/27 07:30:33;;;;;;;0.00;0.00;;;;;;;9.23;54.69;102893.19;7357283;19;20287;-58
2023/02/27 07:32:59;;;;;;;0.00;0.00;;;;;;;9.24;54.52;102902.75;7359128;19;20849;-57
2023/02/27 07:35:24;;;;;;;0.00;0.00;;;;;;;9.25;54.45;102904.50;7353614;19;20039;-57
2023/02/27 07:37:49;;;;;;;0.10;0.10;;;;;;;9.19;54.55;102899.19;7356933;19;20485;-57
2023/02/27 07:40:15;;;;;;;0.00;0.00;;;;;;;9.26;54.42;102911.47;7361831;19;20017;-58
2023/02/27 07:42:41;;;;;;;0.00;0.00;;;;;;;9.19;54.29;102905.28;7359282;19;20014;-58
2023/02/27 07:45:07;;;;;;;0.08;0.08;;;;;;;9.24;54.53;102918.41;7356010;19;20039;-58
2023/02/27 07:47:32;;;;;;;0.00;0.00;;;;;;;9.23;54.54;102916.66;7361826;19;20364;-58
2023/02/27 07:49:58;;;;;;;0.00;0.00;;;;;;;9.22;53.87;102920.97;7339140;19;20010;-58
2023/02/27 07:52:24;;;;;;;0.00;0.00;;;;;;;9.14;54.09;102917.34;7357762;19;20014;-57
2023/02/27 07:54:49;;;;;;;0.00;0.00;;;;;;;9.22;54.17;102930.50;7358373;19;20014;-58
2023/02/27 07:57:15;;;;;;;0.00;0.00;;;;;;;9.21;54.05;102933.97;7353585;19;20010;-57
2023/02/27 07:59:40;;;;;;;0.00;0.00;;;;;;;9.20;54.11;102924.41;7358180;19;20015;-57
2023/02/27 08:02:06;;;;;;;0.00;0.00;;;;;;;9.20;53.67;102924.41;7356370;19;20065;-59
2023/02/27 08:04:31;;;;;;;0.00;0.00;;;;;;;9.19;54.15;102935.69;7360982;19;20025;-58
2023/02/27 08:06:57;;;;;;;0.00;0.00;;;;;;;9.19;53.75;102933.09;7354794;19;20026;-58
2023/02/27 08:09:23;;;;;;;0.10;0.10;;;;;;;9.08;53.97;102912.91;7360850;19;20015;-57
2023/02/27 08:11:48;;;;;;;0.10;0.10;;;;;;;9.18;54.17;102939.16;7356543;19;20047;-58
2023/02/27 08:14:14;;;;;;;0.00;0.00;;;;;;;9.19;54.34;102938.28;7361096;19;20139;-57
2023/02/27 08:16:39;;;;;;;0.00;0.00;;;;;;;9.18;53.89;102946.97;7354681;19;20014;-58
2023/02/27 08:19:05;;;;;;;0.00;0.00;;;;;;;9.20;54.20;102947.88;7361441;19;20021;-58
2023/02/27 08:21:30;;;;;;;0.10;0.10;;;;;;;9.19;54.13;102946.13;7358097;19;20009;-58
2023/02/27 08:23:56;;;;;;;0.03;0.03;;;;;;;9.18;54.26;102950.44;7360867;19;20018;-58
2023/02/27 08:26:21;;;;;;;0.00;0.00;;;;;;;9.10;54.29;102937.25;7360193;19;20022;-57
2023/02/27 08:28:47;;;;;;;0.00;0.00;;;;;;;9.20;54.46;102948.75;7358763;19;20006;-57
2023/02/27 08:31:12;;;;;;;0.00;0.00;;;;;;;9.21;54.20;102954.84;7356938;19;20638;-57
2023/02/27 08:33:38;;;;;;;0.00;0.00;;;;;;;9.22;54.32;102953.97;7357618;19;20051;-58
2023/02/27 08:36:04;;;;;;;0.10;0.10;;;;;;;9.20;54.11;102958.28;7355187;19;20010;-58
2023/02/27 08:38:29;;;;;;;0.00;0.00;;;;;;;9.25;54.03;102956.66;7357755;19;20578;-57
2023/02/27 08:40:54;;;;;;;0.00;0.00;;;;;;;9.20;53.84;102953.09;7354426;19;20428;-58
2023/02/27 08:43:21;;;;;;;0.03;0.03;;;;;;;9.14;53.93;102942.53;7356821;19;20022;-57
2023/02/27 08:45:47;;;;;;;0.00;0.00;;;;;;;9.24;53.61;102970.53;7350833;19;20010;-58
2023/02/27 08:48:14;;;;;;;0.00;0.00;;;;;;;9.21;54.04;102965.25;7358179;19;20336;-58
2023/02/27 08:50:41;;;;;;;0.00;0.00;;;;;;;9.14;53.73;102942.53;7353221;19;20534;-58
2023/02/27 08:53:07;;;;;;;0.00;0.00;;;;;;;9.21;54.02;102954.84;7329751;19;21262;-58
2023/02/27 08:55:32;;;;;;;0.00;0.00;;;;;;;9.25;54.06;102972.28;7353098;19;20019;-57
2023/02/27 08:57:58;;;;;;;0.00;0.00;;;;;;;9.18;53.41;102949.56;7353476;19;20042;-58
2023/02/27 09:00:23;;;;;;;0.00;0.00;;;;;;;9.25;53.61;102962.75;7354437;19;20129;-58
2023/02/27 09:02:49;;;;;;;0.00;0.00;;;;;;;9.28;53.58;102969.75;7352008;19;20007;-58
2023/02/27 09:05:15;;;;;;;0.00;0.00;;;;;;;9.29;53.25;102976.72;7355285;19;20006;-57
2023/02/27 09:07:42;;;;;;;0.00;0.00;;;;;;;9.27;53.42;102970.59;7354672;19;20008;-57
2023/02/27 09:10:08;;;;;;;0.00;0.00;;;;;;;9.30;53.89;102968.03;7352833;19;20006;-58
2023/02/27 09:12:34;;;;;;;0.00;0.00;;;;;;;9.30;53.32;102968.91;7352842;19;20014;-57
2023/02/27 09:14:59;;;;;;;0.00;0.00;;;;;;;9.31;53.74;102977.63;7353250;19;20021;-58
2023/02/27 09:17:25;;;;;;;0.00;0.00;;;;;;;9.25;53.38;102959.25;7351114;19;20006;-58
2023/02/27 09:19:50;;;;;;;0.00;0.00;;;;;;;9.33;53.56;102983.75;7354163;19;20017;-57
2023/02/27 09:22:17;;;;;;;0.00;0.00;;;;;;;9.34;53.92;102988.13;7351806;19;20100;-58
2023/02/27 09:24:43;;;;;;;0.10;0.10;;;;;;;9.28;53.49;102977.59;7354819;19;20019;-58
2023/02/27 09:27:08;;;;;;;0.00;0.00;;;;;;;9.35;53.72;102995.97;7352433;19;20041;-57
2023/02/27 09:29:33;;;;;;;0.00;0.00;;;;;;;9.38;53.17;103002.97;7353009;19;20010;-58
2023/02/27 09:31:59;;;;;;;0.00;0.00;;;;;;;9.39;53.54;102996.91;7352267;19;20618;-58
2023/02/27 09:34:27;;;;;;;0.00;0.00;;;;;;;9.40;53.41;102998.66;7351683;19;20046;-57
2023/02/27 09:36:52;;;;;;;0.10;0.10;;;;;;;9.40;53.19;103001.28;7351302;19;20742;-58
2023/02/27 09:39:18;;;;;;;0.00;0.00;;;;;;;9.42;52.45;102991.72;7355247;19;20030;-57
2023/02/27 09:42:04;;;;;;;0.00;0.00;;;;;;;9.48;52.49;102998.78;7354467;19;20015;-58
2023/02/27 09:44:45;;;;;;;0.00;0.00;;;;;;;9.48;52.66;102993.56;7353488;19;20384;-57
2023/02/27 09:47:27;;;;;;;0.00;0.00;;;;;;;9.44;52.47;102989.19;7348454;19;20034;-58
2023/02/27 09:49:52;;;;;;;0.00;0.00;;;;;;;9.51;52.24;103002.34;7354812;19;20029;-58
2023/02/27 09:52:17;;;;;;;0.00;0.00;;;;;;;9.53;52.62;103000.66;7351213;19;20006;-57
2023/02/27 09:54:43;;;;;;;0.00;0.00;;;;;;;9.16;52.56;102940.81;7352097;19;20014;-57
2023/02/27 09:57:16;;;;;;;0.00;0.00;;;;;;;9.56;52.60;103000.69;7346788;19;20027;-57
2023/02/27 09:59:58;;;;;;;0.00;0.00;;;;;;;9.60;52.45;103004.25;7350745;19;20017;-57
2023/02/27 10:02:37;;;;;;;0.00;0.00;;;;;;;9.64;52.46;102999.97;7348413;19;20025;-58
2023/02/27 10:05:17;;;;;;;0.00;0.00;;;;;;;9.69;52.47;103003.53;7350033;19;20018;-57
2023/02/27 10:07:59;;;;;;;0.00;0.00;;;;;;;9.73;52.56;103003.63;7349886;19;20797;-57
2023/02/27 10:10:38;;;;;;;0.00;0.00;;;;;;;9.79;53.02;103005.47;7348678;19;20578;-57
2023/02/27 10:13:10;;;;;;;0.00;0.00;;;;;;;9.92;52.75;103004.81;7349808;19;20040;-57
2023/02/27 10:15:40;;;;;;;0.00;0.00;;;;;;;10.05;52.77;103006.78;7353275;19;20755;-58
2023/02/27 10:18:16;;;;;;;0.00;0.00;;;;;;;10.21;52.62;103007.91;7348132;19;20017;-57
2023/02/27 10:20:49;;;;;;;0.00;0.00;;;;;;;10.37;52.25;103001.22;7351051;19;20073;-57
2023/02/27 10:23:19;;;;;;;0.00;0.00;;;;;;;10.49;52.31;103009.25;7350567;19;20657;-57
2023/02/27 10:25:48;;;;;;;0.00;0.00;;;;;;;10.61;51.95;103001.56;7352394;19;20027;-57
2023/02/27 10:28:19;;;;;;;0.10;0.10;;;;;;;10.76;51.83;103013.09;7350090;19;20025;-58
2023/02/27 10:30:48;;;;;;;0.00;0.00;;;;;;;10.90;51.91;103011.56;7348289;19;20041;-58
2023/02/27 10:33:26;;;;;;;0.00;0.00;;;;;;;10.98;51.30;103007.28;7349257;19;20018;-60
2023/02/27 10:35:52;;;;;;;0.00;0.00;;;;;;;11.08;51.55;103010.88;7349293;19;20010;-58
2023/02/27 10:38:37;;;;;;;0.00;0.00;;;;;;;11.18;51.82;103008.41;7346382;19;20085;-58
2023/02/27 10:41:04;;;;;;;0.00;0.00;;;;;;;11.18;51.36;103011.00;7348888;19;20016;-58
2023/02/27 10:43:29;;;;;;;0.00;0.00;;;;;;;11.25;51.51;103001.47;7345921;19;20759;-58
2023/02/27 10:45:58;;;;;;;0.05;0.05;;;;;;;11.39;51.94;102999.03;7350911;19;20018;-58
2023/02/27 10:48:24;;;;;;;0.00;0.00;;;;;;;11.64;52.09;103008.88;7342936;19;20014;-58
2023/02/27 10:50:52;;;;;;;0.00;0.00;;;;;;;12.00;51.89;103002.25;7348839;19;20010;-58
2023/02/27 10:53:26;;;;;;;0.03;0.03;;;;;;;12.41;51.59;102999.06;7345908;19;20892;-57
2023/02/27 10:55:57;;;;;;;0.10;0.10;;;;;;;12.81;50.81;102988.81;7346414;19;20631;-58
2023/02/27 10:58:23;;;;;;;0.00;0.00;;;;;;;13.14;49.44;103015.19;7345414;19;20002;-57
2023/02/27 11:00:55;;;;;;;0.00;0.00;;;;;;;13.31;48.92;103011.75;7345364;19;20010;-58
2023/02/27 11:03:27;;;;;;;0.00;0.00;;;;;;;13.46;48.60;103011.81;7342333;19;20006;-58
2023/02/27 11:06:23;;;;;;;0.00;0.00;;;;;;;13.58;50.21;103019.69;7340498;19;20019;-58
2023/02/27 11:09:22;;;;;;;0.00;0.00;;;;;;;13.62;49.02;103018.84;7241724;19;2004554;-58
2023/02/27 11:11:48;;;;;;;0.05;0.05;;;;;;;13.55;47.92;103018.84;7243122;19;2004468;-58
2023/02/27 11:14:30;;;;;;;0.00;0.00;;;;;;;13.55;48.61;103027.59;7345930;19;20101;-58
2023/02/27 11:17:01;;;;;;;0.08;0.08;;;;;;;13.48;47.87;103021.44;7344934;19;20100;-58
2023/02/27 11:19:38;;;;;;;0.08;0.08;;;;;;;13.44;48.70;103008.31;7347661;19;20371;-58
2023/02/27 11:22:22;;;;;;;0.00;0.00;;;;;;;13.62;49.13;103013.59;7350115;19;20014;-58
2023/02/27 11:24:47;;;;;;;0.00;0.00;;;;;;;13.79;48.41;103012.72;7345921;19;20504;-58
2023/02/27 11:27:25;;;;;;;0.00;0.00;;;;;;;14.15;48.89;103020.63;7349130;19;20015;-58
2023/02/27 11:30:21;;;;;;;0.10;0.10;;;;;;;14.64;50.19;103010.06;7346252;19;20077;-58
2023/02/27 11:32:48;;;;;;;0.10;0.10;;;;;;;14.90;46.80;103002.09;7247054;19;2004568;-58
2023/02/27 11:35:25;;;;;;;0.10;0.10;;;;;;;15.21;47.31;103008.09;7349765;19;20015;-58
2023/02/27 11:37:53;;;;;;;0.00;0.00;;;;;;;15.26;45.22;103000.19;7344569;19;20031;-58
2023/02/27 11:40:21;;;;;;;0.00;0.00;;;;;;;15.24;44.70;103010.69;7349114;19;20031;-58
2023/02/27 11:42:50;;;;;;;0.10;0.10;;;;;;;15.18;44.66;103002.84;7351779;19;20027;-58
2023/02/27 11:45:39;;;;;;;0.00;0.00;;;;;;;15.13;46.26;102996.72;7349021;19;20023;-58
2023/02/27 11:48:19;;;;;;;0.05;0.05;;;;;;;14.98;44.19;102989.78;7348542;19;20286;-58
2023/02/27 11:50:56;;;;;;;0.00;0.00;;;;;;;14.92;45.36;102999.47;7349312;19;20018;-58